sensor_id;sensor_type;location;lat;lon;timestamp;P1;durP1;ratioP1;P2;durP2;ratioP2
80138;SDS011;69467;59.842;17.604;2024-03-07T00:02:08;3.30;;;2.13;;
80138;SDS011;69467;59.842;17.604;2024-03-07T00:04:34;6.07;;;2.80;;
80138;SDS011;69467;59.842;17.604;2024-03-07T00:07:01;6.10;;;2.73;;
80138;SDS011;69467;59.842;17.604;2024-03-07T00:09:28;5.57;;;2.77;;
80138;SDS011;69467;59.842;17.604;2024-03-07T00:11:57;3.97;;;2.60;;
80138;SDS011;69467;59.842;17.604;2024-03-07T00:16:52;5.77;;;2.37;;
80138;SDS011;69467;59.842;17.604;2024-03-07T00:19:20;3.40;;;2.10;;
80138;SDS011;69467;59.842;17.604;2024-03-07T00:21:46;3.20;;;1.90;;
80138;SDS011;69467;59.842;17.604;2024-03-07T00:26:38;3.80;;;2.00;;
80138;SDS011;69467;59.842;17.604;2024-03-07T00:29:05;4.27;;;3.40;;
80138;SDS011;69467;59.842;17.604;2024-03-07T00:31:31;3.80;;;2.27;;
80138;SDS011;69467;59.842;17.604;2024-03-07T00:33:58;6.63;;;2.50;;
80138;SDS011;69467;59.842;17.604;2024-03-07T00:38:49;3.57;;;1.80;;
80138;SDS011;69467;59.842;17.604;2024-03-07T00:43:40;12.23;;;3.67;;
80138;SDS011;69467;59.842;17.604;2024-03-07T00:46:06;5.57;;;2.90;;
80138;SDS011;69467;59.842;17.604;2024-03-07T00:53:23;8.05;;;4.07;;
80138;SDS011;69467;59.842;17.604;2024-03-07T00:58:13;4.53;;;2.30;;
80138;SDS011;69467;59.842;17.604;2024-03-07T01:00:39;5.70;;;3.23;;
80138;SDS011;69467;59.842;17.604;2024-03-07T01:03:08;5.20;;;3.07;;
80138;SDS011;69467;59.842;17.604;2024-03-07T01:05:36;3.73;;;2.27;;
80138;SDS011;69467;59.842;17.604;2024-03-07T01:08:02;5.83;;;3.33;;
80138;SDS011;69467;59.842;17.604;2024-03-07T01:12:53;6.07;;;2.57;;
80138;SDS011;69467;59.842;17.604;2024-03-07T01:15:22;4.00;;;2.57;;
80138;SDS011;69467;59.842;17.604;2024-03-07T01:20:13;7.60;;;3.57;;
80138;SDS011;69467;59.842;17.604;2024-03-07T01:25:05;4.10;;;2.27;;
80138;SDS011;69467;59.842;17.604;2024-03-07T01:27:31;9.57;;;3.37;;
80138;SDS011;69467;59.842;17.604;2024-03-07T01:32:22;5.53;;;2.90;;
80138;SDS011;69467;59.842;17.604;2024-03-07T01:39:38;4.73;;;2.57;;
80138;SDS011;69467;59.842;17.604;2024-03-07T01:46:57;4.63;;;2.20;;
80138;SDS011;69467;59.842;17.604;2024-03-07T01:49:23;7.20;;;3.20;;
80138;SDS011;69467;59.842;17.604;2024-03-07T01:56:39;6.18;;;3.15;;
80138;SDS011;69467;59.842;17.604;2024-03-07T02:01:32;7.03;;;2.50;;
80138;SDS011;69467;59.842;17.604;2024-03-07T02:06:23;5.83;;;2.60;;
80138;SDS011;69467;59.842;17.604;2024-03-07T02:08:50;6.00;;;2.67;;
80138;SDS011;69467;59.842;17.604;2024-03-07T02:13:41;8.47;;;3.83;;
80138;SDS011;69467;59.842;17.604;2024-03-07T02:23:25;5.73;;;2.47;;
80138;SDS011;69467;59.842;17.604;2024-03-07T02:25:52;4.10;;;2.30;;
80138;SDS011;69467;59.842;17.604;2024-03-07T02:30:43;6.93;;;2.47;;
80138;SDS011;69467;59.842;17.604;2024-03-07T02:33:10;4.20;;;2.57;;
80138;SDS011;69467;59.842;17.604;2024-03-07T02:35:37;4.33;;;1.93;;
80138;SDS011;69467;59.842;17.604;2024-03-07T02:38:03;5.60;;;2.40;;
80138;SDS011;69467;59.842;17.604;2024-03-07T02:40:29;7.40;;;2.47;;
80138;SDS011;69467;59.842;17.604;2024-03-07T02:42:55;5.83;;;2.47;;
80138;SDS011;69467;59.842;17.604;2024-03-07T02:50:11;3.20;;;1.87;;
80138;SDS011;69467;59.842;17.604;2024-03-07T02:52:37;5.70;;;3.27;;
80138;SDS011;69467;59.842;17.604;2024-03-07T02:55:02;6.83;;;2.60;;
80138;SDS011;69467;59.842;17.604;2024-03-07T02:57:30;3.33;;;1.93;;
80138;SDS011;69467;59.842;17.604;2024-03-07T03:02:21;3.33;;;2.23;;
80138;SDS011;69467;59.842;17.604;2024-03-07T03:07:12;3.73;;;2.50;;
80138;SDS011;69467;59.842;17.604;2024-03-07T03:12:08;3.90;;;1.80;;
80138;SDS011;69467;59.842;17.604;2024-03-07T03:14:36;3.53;;;2.10;;
80138;SDS011;69467;59.842;17.604;2024-03-07T03:19:28;4.30;;;1.87;;
80138;SDS011;69467;59.842;17.604;2024-03-07T03:24:20;4.93;;;1.90;;
80138;SDS011;69467;59.842;17.604;2024-03-07T03:26:46;5.93;;;2.37;;
80138;SDS011;69467;59.842;17.604;2024-03-07T03:31:38;2.87;;;1.43;;
80138;SDS011;69467;59.842;17.604;2024-03-07T03:36:30;4.90;;;2.83;;
80138;SDS011;69467;59.842;17.604;2024-03-07T03:38:55;5.40;;;2.47;;
80138;SDS011;69467;59.842;17.604;2024-03-07T03:41:21;6.07;;;3.50;;
80138;SDS011;69467;59.842;17.604;2024-03-07T03:43:47;4.67;;;2.43;;
80138;SDS011;69467;59.842;17.604;2024-03-07T03:51:06;4.60;;;2.57;;
80138;SDS011;69467;59.842;17.604;2024-03-07T03:53:33;3.73;;;2.27;;
80138;SDS011;69467;59.842;17.604;2024-03-07T03:58:24;3.57;;;1.87;;
80138;SDS011;69467;59.842;17.604;2024-03-07T04:00:49;3.83;;;2.17;;
80138;SDS011;69467;59.842;17.604;2024-03-07T04:10:32;5.87;;;2.60;;
80138;SDS011;69467;59.842;17.604;2024-03-07T04:15:23;3.80;;;1.93;;
80138;SDS011;69467;59.842;17.604;2024-03-07T04:17:51;3.63;;;2.30;;
80138;SDS011;69467;59.842;17.604;2024-03-07T04:22:42;5.17;;;2.40;;
80138;SDS011;69467;59.842;17.604;2024-03-07T04:25:08;3.33;;;2.23;;
80138;SDS011;69467;59.842;17.604;2024-03-07T04:27:34;2.57;;;2.03;;
80138;SDS011;69467;59.842;17.604;2024-03-07T04:30:02;3.90;;;2.20;;
80138;SDS011;69467;59.842;17.604;2024-03-07T04:32:29;4.60;;;2.10;;
80138;SDS011;69467;59.842;17.604;2024-03-07T04:34:55;4.20;;;2.33;;
80138;SDS011;69467;59.842;17.604;2024-03-07T04:37:22;10.77;;;2.67;;
80138;SDS011;69467;59.842;17.604;2024-03-07T04:42:13;4.80;;;2.03;;
80138;SDS011;69467;59.842;17.604;2024-03-07T04:47:04;3.13;;;1.37;;
80138;SDS011;69467;59.842;17.604;2024-03-07T04:49:31;3.37;;;2.00;;
80138;SDS011;69467;59.842;17.604;2024-03-07T04:51:58;3.43;;;2.43;;
80138;SDS011;69467;59.842;17.604;2024-03-07T04:54:25;3.87;;;1.77;;
80138;SDS011;69467;59.842;17.604;2024-03-07T04:56:51;4.93;;;2.13;;
80138;SDS011;69467;59.842;17.604;2024-03-07T04:59:18;2.83;;;2.03;;
80138;SDS011;69467;59.842;17.604;2024-03-07T05:01:45;6.07;;;2.47;;
80138;SDS011;69467;59.842;17.604;2024-03-07T05:04:14;2.80;;;1.87;;
80138;SDS011;69467;59.842;17.604;2024-03-07T05:06:40;3.80;;;2.20;;
80138;SDS011;69467;59.842;17.604;2024-03-07T05:11:34;3.97;;;3.00;;
80138;SDS011;69467;59.842;17.604;2024-03-07T05:14:00;5.57;;;2.13;;
80138;SDS011;69467;59.842;17.604;2024-03-07T05:16:29;2.27;;;1.90;;
80138;SDS011;69467;59.842;17.604;2024-03-07T05:18:58;4.67;;;2.17;;
80138;SDS011;69467;59.842;17.604;2024-03-07T05:24:02;5.18;;;2.92;;
80138;SDS011;69467;59.842;17.604;2024-03-07T05:26:28;2.97;;;2.30;;
80138;SDS011;69467;59.842;17.604;2024-03-07T05:29:09;3.60;;;2.77;;
80138;SDS011;69467;59.842;17.604;2024-03-07T05:31:35;3.75;;;1.90;;
80138;SDS011;69467;59.842;17.604;2024-03-07T05:34:03;6.53;;;2.10;;
80138;SDS011;69467;59.842;17.604;2024-03-07T05:36:33;3.17;;;2.07;;
80138;SDS011;69467;59.842;17.604;2024-03-07T05:41:35;3.43;;;2.00;;
80138;SDS011;69467;59.842;17.604;2024-03-07T05:46:26;6.17;;;2.70;;
80138;SDS011;69467;59.842;17.604;2024-03-07T05:48:52;4.10;;;2.73;;
80138;SDS011;69467;59.842;17.604;2024-03-07T05:51:24;4.90;;;2.53;;
80138;SDS011;69467;59.842;17.604;2024-03-07T05:53:49;8.93;;;3.13;;
80138;SDS011;69467;59.842;17.604;2024-03-07T05:56:16;4.80;;;2.07;;
80138;SDS011;69467;59.842;17.604;2024-03-07T06:01:06;6.90;;;2.07;;
80138;SDS011;69467;59.842;17.604;2024-03-07T06:03:33;4.50;;;2.50;;
80138;SDS011;69467;59.842;17.604;2024-03-07T06:06:01;4.73;;;2.23;;
80138;SDS011;69467;59.842;17.604;2024-03-07T06:10:52;2.47;;;1.70;;
80138;SDS011;69467;59.842;17.604;2024-03-07T06:13:18;4.50;;;2.60;;
80138;SDS011;69467;59.842;17.604;2024-03-07T06:18:09;4.73;;;2.87;;
80138;SDS011;69467;59.842;17.604;2024-03-07T06:20:42;3.47;;;2.13;;
80138;SDS011;69467;59.842;17.604;2024-03-07T06:25:33;7.27;;;3.27;;
80138;SDS011;69467;59.842;17.604;2024-03-07T06:28:05;6.67;;;2.53;;
80138;SDS011;69467;59.842;17.604;2024-03-07T06:30:38;5.00;;;3.43;;
80138;SDS011;69467;59.842;17.604;2024-03-07T06:33:08;5.00;;;2.60;;
80138;SDS011;69467;59.842;17.604;2024-03-07T06:38:02;4.17;;;2.50;;
80138;SDS011;69467;59.842;17.604;2024-03-07T06:40:37;5.03;;;2.15;;
80138;SDS011;69467;59.842;17.604;2024-03-07T06:43:03;3.67;;;2.80;;
80138;SDS011;69467;59.842;17.604;2024-03-07T06:47:57;4.63;;;3.23;;
80138;SDS011;69467;59.842;17.604;2024-03-07T06:55:17;3.88;;;2.15;;
80138;SDS011;69467;59.842;17.604;2024-03-07T06:57:43;2.70;;;2.07;;
80138;SDS011;69467;59.842;17.604;2024-03-07T07:00:10;4.40;;;1.77;;
80138;SDS011;69467;59.842;17.604;2024-03-07T07:02:37;3.13;;;1.60;;
80138;SDS011;69467;59.842;17.604;2024-03-07T07:05:04;3.57;;;1.87;;
80138;SDS011;69467;59.842;17.604;2024-03-07T07:07:39;4.13;;;2.00;;
80138;SDS011;69467;59.842;17.604;2024-03-07T07:10:06;3.40;;;2.67;;
80138;SDS011;69467;59.842;17.604;2024-03-07T07:12:37;4.13;;;2.53;;
80138;SDS011;69467;59.842;17.604;2024-03-07T07:15:03;9.50;;;2.83;;
80138;SDS011;69467;59.842;17.604;2024-03-07T07:17:29;4.87;;;2.33;;
80138;SDS011;69467;59.842;17.604;2024-03-07T07:22:22;3.80;;;2.20;;
80138;SDS011;69467;59.842;17.604;2024-03-07T07:27:12;6.55;;;2.33;;
80138;SDS011;69467;59.842;17.604;2024-03-07T07:32:04;6.53;;;2.07;;
80138;SDS011;69467;59.842;17.604;2024-03-07T07:36:55;5.20;;;2.40;;
80138;SDS011;69467;59.842;17.604;2024-03-07T07:39:21;2.83;;;1.57;;
80138;SDS011;69467;59.842;17.604;2024-03-07T07:44:12;2.78;;;1.85;;
80138;SDS011;69467;59.842;17.604;2024-03-07T07:46:39;11.23;;;2.80;;
80138;SDS011;69467;59.842;17.604;2024-03-07T07:49:05;4.27;;;2.67;;
80138;SDS011;69467;59.842;17.604;2024-03-07T07:53:56;5.20;;;2.40;;
80138;SDS011;69467;59.842;17.604;2024-03-07T07:58:47;6.30;;;2.20;;
80138;SDS011;69467;59.842;17.604;2024-03-07T08:01:14;5.00;;;2.43;;
80138;SDS011;69467;59.842;17.604;2024-03-07T08:03:40;6.10;;;2.20;;
80138;SDS011;69467;59.842;17.604;2024-03-07T08:10:57;7.47;;;2.40;;
80138;SDS011;69467;59.842;17.604;2024-03-07T08:13:22;10.23;;;3.38;;
80138;SDS011;69467;59.842;17.604;2024-03-07T08:15:48;4.10;;;2.70;;
80138;SDS011;69467;59.842;17.604;2024-03-07T08:18:13;4.28;;;1.60;;
80138;SDS011;69467;59.842;17.604;2024-03-07T08:23:05;5.57;;;2.20;;
80138;SDS011;69467;59.842;17.604;2024-03-07T08:25:30;3.47;;;1.80;;
80138;SDS011;69467;59.842;17.604;2024-03-07T08:27:56;4.85;;;2.42;;
80138;SDS011;69467;59.842;17.604;2024-03-07T08:30:23;7.00;;;2.00;;
80138;SDS011;69467;59.842;17.604;2024-03-07T08:32:49;5.93;;;1.63;;
80138;SDS011;69467;59.842;17.604;2024-03-07T08:35:19;4.32;;;2.50;;
80138;SDS011;69467;59.842;17.604;2024-03-07T08:37:46;4.63;;;1.92;;
80138;SDS011;69467;59.842;17.604;2024-03-07T08:40:18;2.88;;;2.15;;
80138;SDS011;69467;59.842;17.604;2024-03-07T08:42:48;4.30;;;1.98;;
80138;SDS011;69467;59.842;17.604;2024-03-07T08:45:16;3.00;;;1.48;;
80138;SDS011;69467;59.842;17.604;2024-03-07T08:47:44;1.65;;;1.52;;
80138;SDS011;69467;59.842;17.604;2024-03-07T08:50:11;7.55;;;2.13;;
80138;SDS011;69467;59.842;17.604;2024-03-07T08:52:39;2.05;;;1.77;;
80138;SDS011;69467;59.842;17.604;2024-03-07T08:55:05;2.10;;;1.67;;
80138;SDS011;69467;59.842;17.604;2024-03-07T08:57:37;2.08;;;1.48;;
80138;SDS011;69467;59.842;17.604;2024-03-07T09:00:07;3.70;;;1.80;;
80138;SDS011;69467;59.842;17.604;2024-03-07T09:02:37;6.25;;;1.65;;
80138;SDS011;69467;59.842;17.604;2024-03-07T09:05:03;1.58;;;1.38;;
80138;SDS011;69467;59.842;17.604;2024-03-07T09:07:30;2.65;;;2.00;;
80138;SDS011;69467;59.842;17.604;2024-03-07T09:09:56;2.83;;;1.30;;
80138;SDS011;69467;59.842;17.604;2024-03-07T09:14:47;1.48;;;1.38;;
80138;SDS011;69467;59.842;17.604;2024-03-07T09:19:38;6.57;;;2.22;;
80138;SDS011;69467;59.842;17.604;2024-03-07T09:26:55;12.00;;;1.83;;
80138;SDS011;69467;59.842;17.604;2024-03-07T09:31:50;3.88;;;1.73;;
80138;SDS011;69467;59.842;17.604;2024-03-07T09:34:18;7.22;;;2.20;;
80138;SDS011;69467;59.842;17.604;2024-03-07T09:36:46;4.07;;;1.02;;
80138;SDS011;69467;59.842;17.604;2024-03-07T09:39:12;3.55;;;1.52;;
80138;SDS011;69467;59.842;17.604;2024-03-07T09:41:40;1.38;;;1.05;;
80138;SDS011;69467;59.842;17.604;2024-03-07T09:44:05;6.35;;;0.90;;
80138;SDS011;69467;59.842;17.604;2024-03-07T09:46:34;20.33;;;2.70;;
80138;SDS011;69467;59.842;17.604;2024-03-07T09:49:00;7.53;;;2.00;;
80138;SDS011;69467;59.842;17.604;2024-03-07T09:51:26;4.53;;;1.50;;
80138;SDS011;69467;59.842;17.604;2024-03-07T09:53:53;6.05;;;1.85;;
80138;SDS011;69467;59.842;17.604;2024-03-07T09:56:22;2.45;;;2.10;;
80138;SDS011;69467;59.842;17.604;2024-03-07T09:58:51;4.15;;;1.42;;
80138;SDS011;69467;59.842;17.604;2024-03-07T10:01:19;6.70;;;1.20;;
80138;SDS011;69467;59.842;17.604;2024-03-07T10:03:46;23.77;;;5.07;;
80138;SDS011;69467;59.842;17.604;2024-03-07T10:06:12;18.98;;;4.10;;
80138;SDS011;69467;59.842;17.604;2024-03-07T10:08:38;17.77;;;3.83;;
80138;SDS011;69467;59.842;17.604;2024-03-07T10:11:05;12.68;;;1.73;;
80138;SDS011;69467;59.842;17.604;2024-03-07T10:13:31;7.68;;;1.52;;
80138;SDS011;69467;59.842;17.604;2024-03-07T10:15:56;7.13;;;1.85;;
80138;SDS011;69467;59.842;17.604;2024-03-07T10:18:25;3.50;;;1.63;;
80138;SDS011;69467;59.842;17.604;2024-03-07T10:20:55;10.73;;;1.75;;
80138;SDS011;69467;59.842;17.604;2024-03-07T10:23:21;10.85;;;2.50;;
80138;SDS011;69467;59.842;17.604;2024-03-07T10:25:47;3.30;;;1.65;;
80138;SDS011;69467;59.842;17.604;2024-03-07T10:28:15;8.30;;;1.88;;
80138;SDS011;69467;59.842;17.604;2024-03-07T10:30:46;4.70;;;0.90;;
80138;SDS011;69467;59.842;17.604;2024-03-07T10:33:15;1.63;;;1.00;;
80138;SDS011;69467;59.842;17.604;2024-03-07T10:35:40;13.57;;;2.72;;
80138;SDS011;69467;59.842;17.604;2024-03-07T10:40:32;3.90;;;0.80;;
80138;SDS011;69467;59.842;17.604;2024-03-07T10:42:58;5.20;;;1.17;;
80138;SDS011;69467;59.842;17.604;2024-03-07T10:45:28;1.70;;;0.93;;
80138;SDS011;69467;59.842;17.604;2024-03-07T10:47:58;2.60;;;1.42;;
80138;SDS011;69467;59.842;17.604;2024-03-07T10:53:07;9.82;;;2.60;;
80138;SDS011;69467;59.842;17.604;2024-03-07T10:59:07;4.25;;;2.00;;
80138;SDS011;69467;59.842;17.604;2024-03-07T11:02:03;5.45;;;1.35;;
80138;SDS011;69467;59.842;17.604;2024-03-07T11:04:54;8.73;;;1.60;;
80138;SDS011;69467;59.842;17.604;2024-03-07T11:07:21;4.30;;;0.80;;
80138;SDS011;69467;59.842;17.604;2024-03-07T11:09:51;5.05;;;1.10;;
80138;SDS011;69467;59.842;17.604;2024-03-07T11:12:17;13.30;;;2.28;;
80138;SDS011;69467;59.842;17.604;2024-03-07T11:14:46;7.25;;;1.23;;
80138;SDS011;69467;59.842;17.604;2024-03-07T11:17:13;9.57;;;1.30;;
80138;SDS011;69467;59.842;17.604;2024-03-07T11:19:40;3.45;;;1.38;;
80138;SDS011;69467;59.842;17.604;2024-03-07T11:22:06;3.70;;;1.45;;
80138;SDS011;69467;59.842;17.604;2024-03-07T11:27:10;3.40;;;1.10;;
80138;SDS011;69467;59.842;17.604;2024-03-07T11:29:40;3.92;;;1.58;;
80138;SDS011;69467;59.842;17.604;2024-03-07T11:32:08;11.15;;;1.75;;
80138;SDS011;69467;59.842;17.604;2024-03-07T11:34:37;5.25;;;1.00;;
80138;SDS011;69467;59.842;17.604;2024-03-07T11:37:07;17.30;;;3.38;;
80138;SDS011;69467;59.842;17.604;2024-03-07T11:39:43;8.82;;;2.67;;
80138;SDS011;69467;59.842;17.604;2024-03-07T11:42:09;1.85;;;0.77;;
80138;SDS011;69467;59.842;17.604;2024-03-07T11:44:44;3.30;;;0.95;;
80138;SDS011;69467;59.842;17.604;2024-03-07T11:47:12;7.53;;;1.30;;
80138;SDS011;69467;59.842;17.604;2024-03-07T11:49:38;2.10;;;1.08;;
80138;SDS011;69467;59.842;17.604;2024-03-07T11:54:37;5.35;;;1.20;;
80138;SDS011;69467;59.842;17.604;2024-03-07T11:57:05;10.10;;;2.42;;
80138;SDS011;69467;59.842;17.604;2024-03-07T11:59:38;2.10;;;1.00;;
80138;SDS011;69467;59.842;17.604;2024-03-07T12:02:05;11.90;;;2.10;;
80138;SDS011;69467;59.842;17.604;2024-03-07T12:06:59;6.57;;;1.40;;
80138;SDS011;69467;59.842;17.604;2024-03-07T12:11:51;5.07;;;1.63;;
80138;SDS011;69467;59.842;17.604;2024-03-07T12:14:21;5.07;;;0.98;;
80138;SDS011;69467;59.842;17.604;2024-03-07T12:16:46;2.97;;;1.35;;
80138;SDS011;69467;59.842;17.604;2024-03-07T12:21:37;5.05;;;0.80;;
80138;SDS011;69467;59.842;17.604;2024-03-07T12:24:11;2.65;;;1.02;;
80138;SDS011;69467;59.842;17.604;2024-03-07T12:26:43;4.03;;;0.98;;
80138;SDS011;69467;59.842;17.604;2024-03-07T12:31:41;30.35;;;5.05;;
80138;SDS011;69467;59.842;17.604;2024-03-07T12:34:07;12.75;;;1.70;;
80138;SDS011;69467;59.842;17.604;2024-03-07T12:36:37;25.23;;;3.13;;
80138;SDS011;69467;59.842;17.604;2024-03-07T12:39:27;15.57;;;2.05;;
80138;SDS011;69467;59.842;17.604;2024-03-07T12:41:58;1.77;;;1.00;;
80138;SDS011;69467;59.842;17.604;2024-03-07T12:46:50;10.93;;;1.13;;
80138;SDS011;69467;59.842;17.604;2024-03-07T12:49:20;5.15;;;1.30;;
80138;SDS011;69467;59.842;17.604;2024-03-07T12:51:54;3.28;;;1.23;;
80138;SDS011;69467;59.842;17.604;2024-03-07T12:54:20;7.82;;;1.63;;
80138;SDS011;69467;59.842;17.604;2024-03-07T12:56:47;1.70;;;1.30;;
80138;SDS011;69467;59.842;17.604;2024-03-07T12:59:15;6.15;;;0.98;;
80138;SDS011;69467;59.842;17.604;2024-03-07T13:04:09;2.17;;;0.70;;
80138;SDS011;69467;59.842;17.604;2024-03-07T13:06:39;5.38;;;0.70;;
80138;SDS011;69467;59.842;17.604;2024-03-07T13:09:09;5.45;;;0.90;;
80138;SDS011;69467;59.842;17.604;2024-03-07T13:11:37;4.93;;;0.85;;
80138;SDS011;69467;59.842;17.604;2024-03-07T13:14:06;8.43;;;1.08;;
80138;SDS011;69467;59.842;17.604;2024-03-07T13:16:32;6.75;;;1.38;;
80138;SDS011;69467;59.842;17.604;2024-03-07T13:18:58;8.43;;;0.98;;
80138;SDS011;69467;59.842;17.604;2024-03-07T13:26:20;9.18;;;0.90;;
80138;SDS011;69467;59.842;17.604;2024-03-07T13:28:51;40.80;;;4.50;;
80138;SDS011;69467;59.842;17.604;2024-03-07T13:31:18;5.57;;;1.73;;
80138;SDS011;69467;59.842;17.604;2024-03-07T13:33:44;5.70;;;1.33;;
80138;SDS011;69467;59.842;17.604;2024-03-07T13:38:36;13.05;;;2.45;;
80138;SDS011;69467;59.842;17.604;2024-03-07T13:43:29;41.03;;;6.45;;
80138;SDS011;69467;59.842;17.604;2024-03-07T13:45:55;6.40;;;1.67;;
80138;SDS011;69467;59.842;17.604;2024-03-07T13:48:21;3.40;;;0.98;;
80138;SDS011;69467;59.842;17.604;2024-03-07T13:53:16;17.33;;;3.60;;
80138;SDS011;69467;59.842;17.604;2024-03-07T14:07:22;11.00;;;1.33;;
80138;SDS011;69467;59.842;17.604;2024-03-07T14:10:11;23.90;;;3.22;;
80138;SDS011;69467;59.842;17.604;2024-03-07T14:13:13;16.70;;;3.40;;
80138;SDS011;69467;59.842;17.604;2024-03-07T14:30:03;20.77;;;2.55;;
80138;SDS011;69467;59.842;17.604;2024-03-07T14:32:37;42.28;;;5.13;;
80138;SDS011;69467;59.842;17.604;2024-03-07T14:37:53;29.58;;;4.80;;
80138;SDS011;69467;59.842;17.604;2024-03-07T14:40:21;31.52;;;4.07;;
80138;SDS011;69467;59.842;17.604;2024-03-07T14:42:47;15.43;;;2.78;;
80138;SDS011;69467;59.842;17.604;2024-03-07T14:45:21;27.67;;;4.78;;
80138;SDS011;69467;59.842;17.604;2024-03-07T14:47:50;15.88;;;2.72;;
80138;SDS011;69467;59.842;17.604;2024-03-07T14:50:19;14.43;;;3.33;;
80138;SDS011;69467;59.842;17.604;2024-03-07T14:52:49;14.70;;;3.03;;
80138;SDS011;69467;59.842;17.604;2024-03-07T14:55:15;10.52;;;1.75;;
80138;SDS011;69467;59.842;17.604;2024-03-07T14:57:44;28.27;;;3.55;;
80138;SDS011;69467;59.842;17.604;2024-03-07T15:00:10;13.15;;;2.10;;
80138;SDS011;69467;59.842;17.604;2024-03-07T15:02:47;38.97;;;4.63;;
80138;SDS011;69467;59.842;17.604;2024-03-07T15:05:16;8.77;;;2.28;;
80138;SDS011;69467;59.842;17.604;2024-03-07T15:07:43;11.88;;;1.73;;
80138;SDS011;69467;59.842;17.604;2024-03-07T15:10:13;56.72;;;6.30;;
80138;SDS011;69467;59.842;17.604;2024-03-07T15:12:44;41.22;;;4.60;;
80138;SDS011;69467;59.842;17.604;2024-03-07T15:15:15;33.97;;;3.28;;
80138;SDS011;69467;59.842;17.604;2024-03-07T15:17:41;39.38;;;5.63;;
80138;SDS011;69467;59.842;17.604;2024-03-07T15:20:08;26.65;;;3.92;;
80138;SDS011;69467;59.842;17.604;2024-03-07T15:22:40;25.48;;;4.90;;
80138;SDS011;69467;59.842;17.604;2024-03-07T15:25:11;93.85;;;10.73;;
80138;SDS011;69467;59.842;17.604;2024-03-07T15:27:39;32.53;;;4.68;;
80138;SDS011;69467;59.842;17.604;2024-03-07T15:30:05;15.82;;;3.53;;
80138;SDS011;69467;59.842;17.604;2024-03-07T15:32:36;29.63;;;4.32;;
80138;SDS011;69467;59.842;17.604;2024-03-07T15:35:02;20.45;;;3.70;;
80138;SDS011;69467;59.842;17.604;2024-03-07T15:37:28;18.15;;;4.35;;
80138;SDS011;69467;59.842;17.604;2024-03-07T15:39:54;26.40;;;8.40;;
80138;SDS011;69467;59.842;17.604;2024-03-07T15:44:44;32.37;;;5.97;;
80138;SDS011;69467;59.842;17.604;2024-03-07T15:47:10;32.92;;;6.38;;
80138;SDS011;69467;59.842;17.604;2024-03-07T15:52:02;36.70;;;4.60;;
80138;SDS011;69467;59.842;17.604;2024-03-07T15:54:30;11.07;;;2.55;;
80138;SDS011;69467;59.842;17.604;2024-03-07T15:56:55;32.58;;;5.40;;
80138;SDS011;69467;59.842;17.604;2024-03-07T16:01:47;51.72;;;6.50;;
80138;SDS011;69467;59.842;17.604;2024-03-07T16:04:13;27.83;;;4.15;;
80138;SDS011;69467;59.842;17.604;2024-03-07T16:06:42;36.63;;;5.85;;
80138;SDS011;69467;59.842;17.604;2024-03-07T16:09:07;25.83;;;4.18;;
80138;SDS011;69467;59.842;17.604;2024-03-07T16:11:33;16.95;;;3.13;;
80138;SDS011;69467;59.842;17.604;2024-03-07T16:18:49;17.33;;;3.17;;
80138;SDS011;69467;59.842;17.604;2024-03-07T16:21:14;7.95;;;2.05;;
80138;SDS011;69467;59.842;17.604;2024-03-07T16:23:40;26.88;;;4.05;;
80138;SDS011;69467;59.842;17.604;2024-03-07T16:26:05;10.95;;;3.58;;
80138;SDS011;69467;59.842;17.604;2024-03-07T16:28:31;13.80;;;2.65;;
80138;SDS011;69467;59.842;17.604;2024-03-07T16:30:56;27.85;;;3.30;;
80138;SDS011;69467;59.842;17.604;2024-03-07T16:33:22;24.95;;;3.58;;
80138;SDS011;69467;59.842;17.604;2024-03-07T16:35:53;14.77;;;4.43;;
80138;SDS011;69467;59.842;17.604;2024-03-07T16:38:18;20.80;;;2.83;;
80138;SDS011;69467;59.842;17.604;2024-03-07T16:40:47;41.72;;;5.20;;
80138;SDS011;69467;59.842;17.604;2024-03-07T16:43:14;12.05;;;2.92;;
80138;SDS011;69467;59.842;17.604;2024-03-07T16:45:39;14.93;;;2.72;;
80138;SDS011;69467;59.842;17.604;2024-03-07T16:48:05;13.15;;;1.98;;
80138;SDS011;69467;59.842;17.604;2024-03-07T16:50:34;16.40;;;3.47;;
80138;SDS011;69467;59.842;17.604;2024-03-07T16:55:30;19.77;;;2.60;;
80138;SDS011;69467;59.842;17.604;2024-03-07T16:57:57;13.77;;;2.30;;
80138;SDS011;69467;59.842;17.604;2024-03-07T17:00:22;21.35;;;4.53;;
80138;SDS011;69467;59.842;17.604;2024-03-07T17:02:55;22.83;;;3.28;;
80138;SDS011;69467;59.842;17.604;2024-03-07T17:05:29;18.60;;;2.70;;
80138;SDS011;69467;59.842;17.604;2024-03-07T17:07:56;22.48;;;2.60;;
80138;SDS011;69467;59.842;17.604;2024-03-07T17:10:26;40.42;;;4.57;;
80138;SDS011;69467;59.842;17.604;2024-03-07T17:13:03;65.70;;;7.75;;
80138;SDS011;69467;59.842;17.604;2024-03-07T17:15:35;80.88;;;8.68;;
80138;SDS011;69467;59.842;17.604;2024-03-07T17:18:02;57.25;;;8.40;;
80138;SDS011;69467;59.842;17.604;2024-03-07T17:20:29;69.60;;;7.55;;
80138;SDS011;69467;59.842;17.604;2024-03-07T17:25:21;54.78;;;6.45;;
80138;SDS011;69467;59.842;17.604;2024-03-07T17:27:49;51.35;;;7.15;;
80138;SDS011;69467;59.842;17.604;2024-03-07T17:30:16;57.25;;;7.80;;
80138;SDS011;69467;59.842;17.604;2024-03-07T17:32:44;47.60;;;7.65;;
80138;SDS011;69467;59.842;17.604;2024-03-07T17:35:13;32.47;;;4.57;;
80138;SDS011;69467;59.842;17.604;2024-03-07T17:37:40;39.47;;;4.55;;
80138;SDS011;69467;59.842;17.604;2024-03-07T17:40:07;23.80;;;4.30;;
80138;SDS011;69467;59.842;17.604;2024-03-07T17:45:29;21.42;;;4.30;;
80138;SDS011;69467;59.842;17.604;2024-03-07T17:47:59;15.45;;;4.03;;
80138;SDS011;69467;59.842;17.604;2024-03-07T17:50:28;17.52;;;3.08;;
80138;SDS011;69467;59.842;17.604;2024-03-07T17:53:04;21.27;;;4.20;;
80138;SDS011;69467;59.842;17.604;2024-03-07T17:55:34;19.55;;;3.35;;
80138;SDS011;69467;59.842;17.604;2024-03-07T18:00:28;31.40;;;4.05;;
80138;SDS011;69467;59.842;17.604;2024-03-07T18:05:23;18.90;;;3.83;;
80138;SDS011;69467;59.842;17.604;2024-03-07T18:07:51;40.38;;;3.40;;
80138;SDS011;69467;59.842;17.604;2024-03-07T18:10:17;22.00;;;4.85;;
80138;SDS011;69467;59.842;17.604;2024-03-07T18:12:45;14.23;;;2.92;;
80138;SDS011;69467;59.842;17.604;2024-03-07T18:15:19;34.25;;;3.75;;
80138;SDS011;69467;59.842;17.604;2024-03-07T18:17:46;22.70;;;3.30;;
80138;SDS011;69467;59.842;17.604;2024-03-07T18:20:18;11.45;;;3.15;;
80138;SDS011;69467;59.842;17.604;2024-03-07T18:22:45;17.80;;;4.88;;
80138;SDS011;69467;59.842;17.604;2024-03-07T18:25:15;13.32;;;3.65;;
80138;SDS011;69467;59.842;17.604;2024-03-07T18:27:47;15.68;;;4.60;;
80138;SDS011;69467;59.842;17.604;2024-03-07T18:30:15;23.20;;;3.95;;
80138;SDS011;69467;59.842;17.604;2024-03-07T18:32:43;36.08;;;5.57;;
80138;SDS011;69467;59.842;17.604;2024-03-07T18:35:09;33.38;;;7.28;;
80138;SDS011;69467;59.842;17.604;2024-03-07T18:37:35;37.95;;;8.07;;
80138;SDS011;69467;59.842;17.604;2024-03-07T18:42:39;28.23;;;6.47;;
80138;SDS011;69467;59.842;17.604;2024-03-07T18:45:13;10.15;;;3.10;;
80138;SDS011;69467;59.842;17.604;2024-03-07T18:47:46;25.83;;;4.05;;
80138;SDS011;69467;59.842;17.604;2024-03-07T18:50:20;23.67;;;4.43;;
80138;SDS011;69467;59.842;17.604;2024-03-07T18:52:47;17.73;;;3.95;;
80138;SDS011;69467;59.842;17.604;2024-03-07T18:55:15;24.98;;;4.20;;
80138;SDS011;69467;59.842;17.604;2024-03-07T18:58:07;33.65;;;5.32;;
80138;SDS011;69467;59.842;17.604;2024-03-07T19:00:34;26.02;;;3.92;;
80138;SDS011;69467;59.842;17.604;2024-03-07T19:03:04;22.20;;;4.65;;